sensor_id;sensor_type;location;lat;lon;timestamp;P1;durP1;ratioP1;P2;durP2;ratioP2
14599;SDS011;7386;45.586;12.854;2023-10-19T00:00:32;23.77;;;17.73;;
14599;SDS011;7386;45.586;12.854;2023-10-19T00:03:00;24.50;;;17.70;;
14599;SDS011;7386;45.586;12.854;2023-10-19T00:05:30;23.53;;;16.93;;
14599;SDS011;7386;45.586;12.854;2023-10-19T00:07:59;23.20;;;17.40;;
14599;SDS011;7386;45.586;12.854;2023-10-19T00:10:33;21.83;;;16.67;;
14599;SDS011;7386;45.586;12.854;2023-10-19T00:13:02;23.97;;;17.57;;
14599;SDS011;7386;45.586;12.854;2023-10-19T00:15:31;22.53;;;17.00;;
14599;SDS011;7386;45.586;12.854;2023-10-19T00:18:06;22.63;;;17.27;;
14599;SDS011;7386;45.586;12.854;2023-10-19T00:20:48;25.37;;;18.10;;
14599;SDS011;7386;45.586;12.854;2023-10-19T00:23:20;23.17;;;16.23;;
14599;SDS011;7386;45.586;12.854;2023-10-19T00:25:57;24.40;;;17.03;;
14599;SDS011;7386;45.586;12.854;2023-10-19T00:28:26;24.03;;;17.27;;
14599;SDS011;7386;45.586;12.854;2023-10-19T00:30:54;23.57;;;17.80;;
14599;SDS011;7386;45.586;12.854;2023-10-19T00:33:31;23.60;;;16.77;;
14599;SDS011;7386;45.586;12.854;2023-10-19T00:35:59;21.50;;;16.87;;
14599;SDS011;7386;45.586;12.854;2023-10-19T00:38:34;24.50;;;17.53;;
14599;SDS011;7386;45.586;12.854;2023-10-19T00:41:16;24.03;;;17.67;;
14599;SDS011;7386;45.586;12.854;2023-10-19T00:43:48;22.93;;;16.83;;
14599;SDS011;7386;45.586;12.854;2023-10-19T00:46:23;22.30;;;17.43;;
14599;SDS011;7386;45.586;12.854;2023-10-19T00:49:00;23.97;;;17.70;;
14599;SDS011;7386;45.586;12.854;2023-10-19T00:51:33;26.17;;;18.73;;
14599;SDS011;7386;45.586;12.854;2023-10-19T00:54:17;25.57;;;18.70;;
14599;SDS011;7386;45.586;12.854;2023-10-19T00:56:54;29.13;;;20.20;;
14599;SDS011;7386;45.586;12.854;2023-10-19T00:59:25;25.50;;;18.80;;
14599;SDS011;7386;45.586;12.854;2023-10-19T01:02:01;27.77;;;19.60;;
14599;SDS011;7386;45.586;12.854;2023-10-19T01:04:43;28.40;;;20.23;;
14599;SDS011;7386;45.586;12.854;2023-10-19T01:07:17;27.10;;;19.93;;
14599;SDS011;7386;45.586;12.854;2023-10-19T01:09:54;26.50;;;19.07;;
14599;SDS011;7386;45.586;12.854;2023-10-19T01:12:24;26.47;;;18.90;;
14599;SDS011;7386;45.586;12.854;2023-10-19T01:15:00;26.53;;;19.90;;
14599;SDS011;7386;45.586;12.854;2023-10-19T01:17:32;27.67;;;20.17;;
14599;SDS011;7386;45.586;12.854;2023-10-19T01:20:06;28.50;;;20.73;;
14599;SDS011;7386;45.586;12.854;2023-10-19T01:22:48;30.60;;;21.17;;
14599;SDS011;7386;45.586;12.854;2023-10-19T01:25:19;34.37;;;23.27;;
14599;SDS011;7386;45.586;12.854;2023-10-19T01:28:01;35.67;;;23.67;;
14599;SDS011;7386;45.586;12.854;2023-10-19T01:30:33;38.43;;;23.80;;
14599;SDS011;7386;45.586;12.854;2023-10-19T01:33:03;35.10;;;24.67;;
14599;SDS011;7386;45.586;12.854;2023-10-19T01:35:39;31.67;;;22.23;;
14599;SDS011;7386;45.586;12.854;2023-10-19T01:38:23;32.20;;;23.20;;
14599;SDS011;7386;45.586;12.854;2023-10-19T01:40:52;33.47;;;23.53;;
14599;SDS011;7386;45.586;12.854;2023-10-19T01:43:21;30.60;;;22.77;;
14599;SDS011;7386;45.586;12.854;2023-10-19T01:45:52;30.23;;;22.67;;
14599;SDS011;7386;45.586;12.854;2023-10-19T01:48:21;30.97;;;22.10;;
14599;SDS011;7386;45.586;12.854;2023-10-19T01:50:54;31.00;;;22.87;;
14599;SDS011;7386;45.586;12.854;2023-10-19T01:53:24;32.57;;;23.20;;
14599;SDS011;7386;45.586;12.854;2023-10-19T01:55:52;31.83;;;22.90;;
14599;SDS011;7386;45.586;12.854;2023-10-19T01:58:25;33.40;;;23.67;;
14599;SDS011;7386;45.586;12.854;2023-10-19T02:00:53;32.43;;;22.80;;
14599;SDS011;7386;45.586;12.854;2023-10-19T02:03:26;34.93;;;22.43;;
14599;SDS011;7386;45.586;12.854;2023-10-19T02:05:58;32.83;;;23.00;;
14599;SDS011;7386;45.586;12.854;2023-10-19T02:08:30;36.80;;;23.97;;
14599;SDS011;7386;45.586;12.854;2023-10-19T02:10:58;34.37;;;24.37;;
14599;SDS011;7386;45.586;12.854;2023-10-19T02:13:28;33.83;;;24.33;;
14599;SDS011;7386;45.586;12.854;2023-10-19T02:15:56;33.77;;;23.40;;
14599;SDS011;7386;45.586;12.854;2023-10-19T02:18:24;36.53;;;25.73;;
14599;SDS011;7386;45.586;12.854;2023-10-19T02:20:52;36.93;;;25.07;;
14599;SDS011;7386;45.586;12.854;2023-10-19T02:23:22;34.80;;;25.50;;
14599;SDS011;7386;45.586;12.854;2023-10-19T02:25:52;37.63;;;25.53;;
14599;SDS011;7386;45.586;12.854;2023-10-19T02:28:20;37.47;;;26.30;;
14599;SDS011;7386;45.586;12.854;2023-10-19T02:30:55;35.63;;;25.23;;
14599;SDS011;7386;45.586;12.854;2023-10-19T02:33:24;34.13;;;24.90;;
14599;SDS011;7386;45.586;12.854;2023-10-19T02:35:53;39.10;;;25.57;;
14599;SDS011;7386;45.586;12.854;2023-10-19T02:38:23;35.30;;;25.47;;
14599;SDS011;7386;45.586;12.854;2023-10-19T02:40:53;37.73;;;25.40;;
14599;SDS011;7386;45.586;12.854;2023-10-19T02:43:22;38.20;;;26.47;;
14599;SDS011;7386;45.586;12.854;2023-10-19T02:45:50;38.53;;;26.87;;
14599;SDS011;7386;45.586;12.854;2023-10-19T02:48:19;39.27;;;26.13;;
14599;SDS011;7386;45.586;12.854;2023-10-19T02:50:50;36.40;;;25.93;;
14599;SDS011;7386;45.586;12.854;2023-10-19T02:53:18;36.63;;;25.30;;
14599;SDS011;7386;45.586;12.854;2023-10-19T02:55:46;38.20;;;26.13;;
14599;SDS011;7386;45.586;12.854;2023-10-19T02:58:19;36.20;;;24.93;;
14599;SDS011;7386;45.586;12.854;2023-10-19T03:00:47;34.90;;;24.90;;
14599;SDS011;7386;45.586;12.854;2023-10-19T03:03:15;34.60;;;25.10;;
14599;SDS011;7386;45.586;12.854;2023-10-19T03:05:44;39.20;;;25.53;;
14599;SDS011;7386;45.586;12.854;2023-10-19T03:08:13;34.87;;;25.43;;
14599;SDS011;7386;45.586;12.854;2023-10-19T03:10:42;35.07;;;24.47;;
14599;SDS011;7386;45.586;12.854;2023-10-19T03:13:09;35.37;;;25.30;;
14599;SDS011;7386;45.586;12.854;2023-10-19T03:15:42;37.17;;;25.20;;
14599;SDS011;7386;45.586;12.854;2023-10-19T03:18:10;31.13;;;23.20;;
14599;SDS011;7386;45.586;12.854;2023-10-19T03:20:39;34.53;;;25.00;;
14599;SDS011;7386;45.586;12.854;2023-10-19T03:23:07;34.93;;;24.67;;
14599;SDS011;7386;45.586;12.854;2023-10-19T03:25:37;34.10;;;23.87;;
14599;SDS011;7386;45.586;12.854;2023-10-19T03:28:30;33.77;;;23.67;;
14599;SDS011;7386;45.586;12.854;2023-10-19T03:31:03;34.07;;;24.03;;
14599;SDS011;7386;45.586;12.854;2023-10-19T03:33:32;33.03;;;24.13;;
14599;SDS011;7386;45.586;12.854;2023-10-19T03:36:03;33.57;;;24.43;;
14599;SDS011;7386;45.586;12.854;2023-10-19T03:38:31;33.83;;;24.40;;
14599;SDS011;7386;45.586;12.854;2023-10-19T03:41:03;35.60;;;24.40;;
14599;SDS011;7386;45.586;12.854;2023-10-19T03:43:35;31.90;;;23.13;;
14599;SDS011;7386;45.586;12.854;2023-10-19T03:46:08;32.83;;;22.37;;
14599;SDS011;7386;45.586;12.854;2023-10-19T03:48:48;29.90;;;23.13;;
14599;SDS011;7386;45.586;12.854;2023-10-19T03:51:17;32.73;;;22.93;;
14599;SDS011;7386;45.586;12.854;2023-10-19T03:53:51;31.23;;;22.37;;
14599;SDS011;7386;45.586;12.854;2023-10-19T03:56:21;31.67;;;21.87;;
14599;SDS011;7386;45.586;12.854;2023-10-19T03:58:50;29.80;;;21.27;;
14599;SDS011;7386;45.586;12.854;2023-10-19T04:01:21;29.67;;;21.13;;
14599;SDS011;7386;45.586;12.854;2023-10-19T04:03:49;29.43;;;21.10;;
14599;SDS011;7386;45.586;12.854;2023-10-19T04:06:21;27.43;;;20.27;;
14599;SDS011;7386;45.586;12.854;2023-10-19T04:08:50;27.57;;;20.63;;
14599;SDS011;7386;45.586;12.854;2023-10-19T04:11:18;24.03;;;18.37;;
14599;SDS011;7386;45.586;12.854;2023-10-19T04:13:49;31.43;;;20.60;;
14599;SDS011;7386;45.586;12.854;2023-10-19T04:16:22;27.60;;;19.23;;
14599;SDS011;7386;45.586;12.854;2023-10-19T04:18:50;27.53;;;20.43;;
14599;SDS011;7386;45.586;12.854;2023-10-19T04:21:20;25.43;;;19.43;;
14599;SDS011;7386;45.586;12.854;2023-10-19T04:23:49;28.50;;;19.70;;
14599;SDS011;7386;45.586;12.854;2023-10-19T04:26:17;25.37;;;19.07;;
14599;SDS011;7386;45.586;12.854;2023-10-19T04:28:46;28.83;;;20.30;;
14599;SDS011;7386;45.586;12.854;2023-10-19T04:31:17;24.23;;;18.67;;
14599;SDS011;7386;45.586;12.854;2023-10-19T04:33:47;25.87;;;19.60;;
14599;SDS011;7386;45.586;12.854;2023-10-19T04:36:16;25.07;;;18.10;;
14599;SDS011;7386;45.586;12.854;2023-10-19T04:38:48;24.97;;;18.77;;
14599;SDS011;7386;45.586;12.854;2023-10-19T04:41:18;25.63;;;19.00;;
14599;SDS011;7386;45.586;12.854;2023-10-19T04:43:46;23.43;;;18.17;;
14599;SDS011;7386;45.586;12.854;2023-10-19T04:46:17;23.70;;;17.57;;
14599;SDS011;7386;45.586;12.854;2023-10-19T04:48:47;21.97;;;17.47;;
14599;SDS011;7386;45.586;12.854;2023-10-19T04:51:16;19.50;;;16.20;;
14599;SDS011;7386;45.586;12.854;2023-10-19T04:53:46;21.10;;;16.53;;
14599;SDS011;7386;45.586;12.854;2023-10-19T04:56:18;19.70;;;15.93;;
14599;SDS011;7386;45.586;12.854;2023-10-19T04:58:46;20.33;;;16.40;;
14599;SDS011;7386;45.586;12.854;2023-10-19T05:01:15;18.30;;;15.10;;
14599;SDS011;7386;45.586;12.854;2023-10-19T05:03:43;18.63;;;14.90;;
14599;SDS011;7386;45.586;12.854;2023-10-19T05:06:13;17.13;;;13.97;;
14599;SDS011;7386;45.586;12.854;2023-10-19T05:08:42;16.90;;;13.30;;
14599;SDS011;7386;45.586;12.854;2023-10-19T05:11:10;17.70;;;14.23;;
14599;SDS011;7386;45.586;12.854;2023-10-19T05:13:39;16.17;;;14.27;;
14599;SDS011;7386;45.586;12.854;2023-10-19T05:16:07;17.17;;;13.50;;
14599;SDS011;7386;45.586;12.854;2023-10-19T05:18:36;16.93;;;13.40;;
14599;SDS011;7386;45.586;12.854;2023-10-19T05:21:04;16.70;;;13.90;;
14599;SDS011;7386;45.586;12.854;2023-10-19T05:23:34;16.30;;;13.07;;
14599;SDS011;7386;45.586;12.854;2023-10-19T05:26:04;15.80;;;12.87;;
14599;SDS011;7386;45.586;12.854;2023-10-19T05:28:33;15.57;;;12.60;;
14599;SDS011;7386;45.586;12.854;2023-10-19T05:31:01;15.33;;;12.27;;
14599;SDS011;7386;45.586;12.854;2023-10-19T05:33:30;15.00;;;12.13;;
14599;SDS011;7386;45.586;12.854;2023-10-19T05:35:59;15.40;;;12.53;;
14599;SDS011;7386;45.586;12.854;2023-10-19T05:38:29;15.03;;;11.77;;
14599;SDS011;7386;45.586;12.854;2023-10-19T05:40:59;15.93;;;11.93;;
14599;SDS011;7386;45.586;12.854;2023-10-19T05:43:29;14.40;;;12.20;;
14599;SDS011;7386;45.586;12.854;2023-10-19T05:45:59;14.73;;;11.40;;
14599;SDS011;7386;45.586;12.854;2023-10-19T05:48:28;14.10;;;11.13;;
14599;SDS011;7386;45.586;12.854;2023-10-19T05:50:57;12.97;;;10.07;;
14599;SDS011;7386;45.586;12.854;2023-10-19T05:53:26;10.20;;;7.90;;
14599;SDS011;7386;45.586;12.854;2023-10-19T05:55:56;10.87;;;8.27;;
14599;SDS011;7386;45.586;12.854;2023-10-19T05:58:26;8.60;;;6.73;;
14599;SDS011;7386;45.586;12.854;2023-10-19T06:00:57;8.37;;;6.77;;
14599;SDS011;7386;45.586;12.854;2023-10-19T06:03:26;7.73;;;6.30;;
14599;SDS011;7386;45.586;12.854;2023-10-19T06:05:55;9.10;;;6.97;;
14599;SDS011;7386;45.586;12.854;2023-10-19T06:08:24;7.50;;;6.50;;
14599;SDS011;7386;45.586;12.854;2023-10-19T06:10:53;7.17;;;5.90;;
14599;SDS011;7386;45.586;12.854;2023-10-19T06:13:22;7.77;;;6.03;;
14599;SDS011;7386;45.586;12.854;2023-10-19T06:15:52;8.00;;;5.97;;
14599;SDS011;7386;45.586;12.854;2023-10-19T06:18:21;7.07;;;5.50;;
14599;SDS011;7386;45.586;12.854;2023-10-19T06:20:49;6.23;;;5.50;;
14599;SDS011;7386;45.586;12.854;2023-10-19T06:23:21;7.07;;;5.50;;
14599;SDS011;7386;45.586;12.854;2023-10-19T06:25:49;8.70;;;5.47;;
14599;SDS011;7386;45.586;12.854;2023-10-19T06:28:18;6.23;;;4.83;;
14599;SDS011;7386;45.586;12.854;2023-10-19T06:30:46;6.43;;;4.83;;
14599;SDS011;7386;45.586;12.854;2023-10-19T06:33:18;6.23;;;5.30;;
14599;SDS011;7386;45.586;12.854;2023-10-19T06:35:49;6.43;;;4.83;;
14599;SDS011;7386;45.586;12.854;2023-10-19T06:38:17;5.67;;;4.57;;
14599;SDS011;7386;45.586;12.854;2023-10-19T06:40:47;5.93;;;4.60;;
14599;SDS011;7386;45.586;12.854;2023-10-19T06:43:15;5.33;;;4.43;;
14599;SDS011;7386;45.586;12.854;2023-10-19T06:45:44;5.70;;;4.63;;
14599;SDS011;7386;45.586;12.854;2023-10-19T06:48:12;5.73;;;4.47;;
14599;SDS011;7386;45.586;12.854;2023-10-19T06:50:43;10.53;;;5.87;;
14599;SDS011;7386;45.586;12.854;2023-10-19T06:53:16;6.87;;;5.47;;
14599;SDS011;7386;45.586;12.854;2023-10-19T06:55:45;7.83;;;5.20;;
14599;SDS011;7386;45.586;12.854;2023-10-19T06:58:14;6.83;;;5.27;;
14599;SDS011;7386;45.586;12.854;2023-10-19T07:00:46;6.93;;;4.93;;
14599;SDS011;7386;45.586;12.854;2023-10-19T07:03:23;8.27;;;5.03;;
14599;SDS011;7386;45.586;12.854;2023-10-19T07:05:53;6.80;;;5.03;;
14599;SDS011;7386;45.586;12.854;2023-10-19T07:08:22;6.53;;;4.90;;
14599;SDS011;7386;45.586;12.854;2023-10-19T07:10:53;6.30;;;5.20;;
14599;SDS011;7386;45.586;12.854;2023-10-19T07:13:22;5.83;;;4.80;;
14599;SDS011;7386;45.586;12.854;2023-10-19T07:15:50;7.57;;;4.73;;
14599;SDS011;7386;45.586;12.854;2023-10-19T07:18:19;6.07;;;4.67;;
14599;SDS011;7386;45.586;12.854;2023-10-19T07:20:48;5.63;;;4.40;;
14599;SDS011;7386;45.586;12.854;2023-10-19T07:23:18;6.23;;;5.00;;
14599;SDS011;7386;45.586;12.854;2023-10-19T07:25:48;5.63;;;4.50;;
14599;SDS011;7386;45.586;12.854;2023-10-19T07:28:21;7.17;;;4.70;;
14599;SDS011;7386;45.586;12.854;2023-10-19T07:30:52;6.87;;;4.83;;
14599;SDS011;7386;45.586;12.854;2023-10-19T07:33:23;6.77;;;4.83;;
14599;SDS011;7386;45.586;12.854;2023-10-19T07:35:52;5.53;;;4.97;;
14599;SDS011;7386;45.586;12.854;2023-10-19T07:38:23;6.10;;;4.17;;
14599;SDS011;7386;45.586;12.854;2023-10-19T07:40:52;8.83;;;4.63;;
14599;SDS011;7386;45.586;12.854;2023-10-19T07:43:21;6.43;;;4.80;;
14599;SDS011;7386;45.586;12.854;2023-10-19T07:45:50;6.57;;;4.60;;
14599;SDS011;7386;45.586;12.854;2023-10-19T07:48:19;5.93;;;4.40;;
14599;SDS011;7386;45.586;12.854;2023-10-19T07:50:48;4.83;;;3.70;;
14599;SDS011;7386;45.586;12.854;2023-10-19T07:53:16;5.23;;;4.00;;
14599;SDS011;7386;45.586;12.854;2023-10-19T07:55:46;6.07;;;3.50;;
14599;SDS011;7386;45.586;12.854;2023-10-19T07:58:15;5.83;;;4.00;;
14599;SDS011;7386;45.586;12.854;2023-10-19T08:00:44;6.93;;;4.40;;
14599;SDS011;7386;45.586;12.854;2023-10-19T08:03:13;4.83;;;3.80;;
14599;SDS011;7386;45.586;12.854;2023-10-19T08:05:43;6.90;;;4.10;;
14599;SDS011;7386;45.586;12.854;2023-10-19T08:08:11;5.77;;;4.23;;
14599;SDS011;7386;45.586;12.854;2023-10-19T08:10:40;7.93;;;4.47;;
14599;SDS011;7386;45.586;12.854;2023-10-19T08:13:10;4.40;;;3.50;;
14599;SDS011;7386;45.586;12.854;2023-10-19T08:15:39;4.93;;;3.57;;
14599;SDS011;7386;45.586;12.854;2023-10-19T08:18:07;4.80;;;3.60;;
14599;SDS011;7386;45.586;12.854;2023-10-19T08:20:39;5.13;;;3.47;;
14599;SDS011;7386;45.586;12.854;2023-10-19T08:23:08;5.43;;;4.03;;
14599;SDS011;7386;45.586;12.854;2023-10-19T08:25:37;5.13;;;3.50;;
14599;SDS011;7386;45.586;12.854;2023-10-19T08:28:23;4.93;;;3.80;;
14599;SDS011;7386;45.586;12.854;2023-10-19T08:30:52;4.13;;;3.53;;
14599;SDS011;7386;45.586;12.854;2023-10-19T08:33:28;6.07;;;3.60;;
14599;SDS011;7386;45.586;12.854;2023-10-19T08:36:00;6.23;;;3.80;;
14599;SDS011;7386;45.586;12.854;2023-10-19T08:38:29;5.93;;;4.20;;
14599;SDS011;7386;45.586;12.854;2023-10-19T08:40:58;4.83;;;3.60;;
14599;SDS011;7386;45.586;12.854;2023-10-19T08:43:28;4.43;;;3.47;;
14599;SDS011;7386;45.586;12.854;2023-10-19T08:46:00;5.80;;;3.70;;
14599;SDS011;7386;45.586;12.854;2023-10-19T08:48:29;5.97;;;3.90;;
14599;SDS011;7386;45.586;12.854;2023-10-19T08:51:03;6.80;;;4.07;;
14599;SDS011;7386;45.586;12.854;2023-10-19T08:53:34;4.95;;;3.60;;
14599;SDS011;7386;45.586;12.854;2023-10-19T08:56:06;7.15;;;3.40;;
14599;SDS011;7386;45.586;12.854;2023-10-19T08:58:36;4.90;;;3.72;;
14599;SDS011;7386;45.586;12.854;2023-10-19T09:01:04;4.40;;;3.20;;
14599;SDS011;7386;45.586;12.854;2023-10-19T09:03:36;5.10;;;3.93;;
14599;SDS011;7386;45.586;12.854;2023-10-19T09:06:07;6.35;;;3.38;;
14599;SDS011;7386;45.586;12.854;2023-10-19T09:08:39;5.57;;;3.05;;
14599;SDS011;7386;45.586;12.854;2023-10-19T09:11:08;4.27;;;3.50;;
14599;SDS011;7386;45.586;12.854;2023-10-19T09:13:46;3.93;;;3.20;;
14599;SDS011;7386;45.586;12.854;2023-10-19T09:16:15;5.13;;;3.60;;
14599;SDS011;7386;45.586;12.854;2023-10-19T09:18:44;6.88;;;3.95;;
14599;SDS011;7386;45.586;12.854;2023-10-19T09:21:14;4.03;;;3.33;;
14599;SDS011;7386;45.586;12.854;2023-10-19T09:23:50;4.38;;;2.97;;
14599;SDS011;7386;45.586;12.854;2023-10-19T09:26:19;5.25;;;3.33;;
14599;SDS011;7386;45.586;12.854;2023-10-19T09:28:49;3.42;;;2.90;;
14599;SDS011;7386;45.586;12.854;2023-10-19T09:31:18;4.03;;;3.10;;
14599;SDS011;7386;45.586;12.854;2023-10-19T09:33:48;3.83;;;3.25;;
14599;SDS011;7386;45.586;12.854;2023-10-19T09:36:16;4.45;;;3.28;;
14599;SDS011;7386;45.586;12.854;2023-10-19T09:38:47;5.05;;;3.20;;
14599;SDS011;7386;45.586;12.854;2023-10-19T09:41:17;6.93;;;3.35;;
14599;SDS011;7386;45.586;12.854;2023-10-19T09:43:47;3.58;;;2.88;;
14599;SDS011;7386;45.586;12.854;2023-10-19T09:46:20;6.00;;;3.20;;
14599;SDS011;7386;45.586;12.854;2023-10-19T09:48:50;5.25;;;3.00;;
14599;SDS011;7386;45.586;12.854;2023-10-19T09:51:19;4.38;;;2.80;;
14599;SDS011;7386;45.586;12.854;2023-10-19T09:53:49;3.72;;;2.70;;
14599;SDS011;7386;45.586;12.854;2023-10-19T09:56:20;4.43;;;2.97;;
14599;SDS011;7386;45.586;12.854;2023-10-19T09:58:51;6.30;;;2.97;;
14599;SDS011;7386;45.586;12.854;2023-10-19T10:01:22;4.70;;;3.10;;
14599;SDS011;7386;45.586;12.854;2023-10-19T10:03:53;5.65;;;3.17;;
14599;SDS011;7386;45.586;12.854;2023-10-19T10:06:27;6.53;;;3.05;;
14599;SDS011;7386;45.586;12.854;2023-10-19T10:08:56;4.28;;;3.08;;
14599;SDS011;7386;45.586;12.854;2023-10-19T10:11:25;5.93;;;3.20;;
14599;SDS011;7386;45.586;12.854;2023-10-19T10:13:54;4.78;;;3.38;;
14599;SDS011;7386;45.586;12.854;2023-10-19T10:16:25;6.57;;;3.20;;
14599;SDS011;7386;45.586;12.854;2023-10-19T10:18:56;4.15;;;3.10;;
14599;SDS011;7386;45.586;12.854;2023-10-19T10:21:26;6.40;;;3.60;;
14599;SDS011;7386;45.586;12.854;2023-10-19T10:23:56;5.15;;;3.20;;
14599;SDS011;7386;45.586;12.854;2023-10-19T10:26:26;4.65;;;3.28;;
14599;SDS011;7386;45.586;12.854;2023-10-19T10:29:09;7.13;;;4.50;;
14599;SDS011;7386;45.586;12.854;2023-10-19T10:31:44;5.40;;;3.90;;
14599;SDS011;7386;45.586;12.854;2023-10-19T10:36:57;6.55;;;3.60;;
14599;SDS011;7386;45.586;12.854;2023-10-19T10:39:26;5.88;;;3.70;;
14599;SDS011;7386;45.586;12.854;2023-10-19T10:41:56;5.55;;;3.83;;
14599;SDS011;7386;45.586;12.854;2023-10-19T10:44:38;4.95;;;3.40;;
14599;SDS011;7386;45.586;12.854;2023-10-19T10:47:09;5.82;;;3.97;;
14599;SDS011;7386;45.586;12.854;2023-10-19T10:49:48;5.13;;;3.65;;
14599;SDS011;7386;45.586;12.854;2023-10-19T10:52:23;7.35;;;4.50;;
14599;SDS011;7386;45.586;12.854;2023-10-19T10:54:52;4.90;;;3.67;;
14599;SDS011;7386;45.586;12.854;2023-10-19T10:57:21;4.60;;;3.63;;
14599;SDS011;7386;45.586;12.854;2023-10-19T11:00:03;6.60;;;4.50;;
14599;SDS011;7386;45.586;12.854;2023-10-19T11:02:36;6.15;;;4.00;;
14599;SDS011;7386;45.586;12.854;2023-10-19T11:05:09;8.32;;;4.85;;
14599;SDS011;7386;45.586;12.854;2023-10-19T11:07:39;4.78;;;3.92;;
14599;SDS011;7386;45.586;12.854;2023-10-19T11:10:08;5.93;;;4.00;;
14599;SDS011;7386;45.586;12.854;2023-10-19T11:12:37;6.07;;;4.40;;
14599;SDS011;7386;45.586;12.854;2023-10-19T11:15:06;5.82;;;4.30;;
14599;SDS011;7386;45.586;12.854;2023-10-19T11:17:43;6.55;;;4.95;;
14599;SDS011;7386;45.586;12.854;2023-10-19T11:20:20;6.13;;;4.20;;
14599;SDS011;7386;45.586;12.854;2023-10-19T11:22:49;7.07;;;4.15;;
14599;SDS011;7386;45.586;12.854;2023-10-19T11:25:18;5.13;;;3.92;;
14599;SDS011;7386;45.586;12.854;2023-10-19T11:27:47;6.03;;;3.38;;
14599;SDS011;7386;45.586;12.854;2023-10-19T11:30:22;7.63;;;4.68;;
14599;SDS011;7386;45.586;12.854;2023-10-19T11:32:52;6.10;;;4.07;;
14599;SDS011;7386;45.586;12.854;2023-10-19T11:35:24;5.22;;;3.70;;
14599;SDS011;7386;45.586;12.854;2023-10-19T11:37:56;10.00;;;4.55;;
14599;SDS011;7386;45.586;12.854;2023-10-19T11:40:25;6.65;;;4.47;;
14599;SDS011;7386;45.586;12.854;2023-10-19T11:42:55;6.00;;;3.88;;
14599;SDS011;7386;45.586;12.854;2023-10-19T11:45:25;5.88;;;4.93;;
14599;SDS011;7386;45.586;12.854;2023-10-19T11:47:56;7.95;;;4.50;;
14599;SDS011;7386;45.586;12.854;2023-10-19T11:50:26;4.07;;;3.50;;
14599;SDS011;7386;45.586;12.854;2023-10-19T11:52:54;6.35;;;4.72;;
14599;SDS011;7386;45.586;12.854;2023-10-19T11:55:23;6.40;;;4.30;;
14599;SDS011;7386;45.586;12.854;2023-10-19T11:57:52;6.05;;;4.10;;
14599;SDS011;7386;45.586;12.854;2023-10-19T12:00:20;5.72;;;4.63;;
14599;SDS011;7386;45.586;12.854;2023-10-19T12:02:51;7.10;;;3.92;;
14599;SDS011;7386;45.586;12.854;2023-10-19T12:05:21;5.35;;;4.18;;
14599;SDS011;7386;45.586;12.854;2023-10-19T12:07:50;5.50;;;4.20;;
14599;SDS011;7386;45.586;12.854;2023-10-19T12:10:19;5.28;;;3.47;;
14599;SDS011;7386;45.586;12.854;2023-10-19T12:12:52;5.63;;;4.18;;
14599;SDS011;7386;45.586;12.854;2023-10-19T12:15:27;6.30;;;4.35;;
14599;SDS011;7386;45.586;12.854;2023-10-19T12:17:56;5.60;;;3.80;;
14599;SDS011;7386;45.586;12.854;2023-10-19T12:20:27;4.05;;;3.42;;
14599;SDS011;7386;45.586;12.854;2023-10-19T12:22:57;6.88;;;4.45;;
14599;SDS011;7386;45.586;12.854;2023-10-19T12:25:27;5.43;;;3.90;;
14599;SDS011;7386;45.586;12.854;2023-10-19T12:28:19;6.05;;;3.80;;
14599;SDS011;7386;45.586;12.854;2023-10-19T12:30:48;5.80;;;4.38;;
14599;SDS011;7386;45.586;12.854;2023-10-19T12:33:17;5.53;;;3.58;;
14599;SDS011;7386;45.586;12.854;2023-10-19T12:35:48;6.32;;;4.13;;
14599;SDS011;7386;45.586;12.854;2023-10-19T12:38:18;6.20;;;4.07;;
14599;SDS011;7386;45.586;12.854;2023-10-19T12:40:47;5.63;;;3.53;;
14599;SDS011;7386;45.586;12.854;2023-10-19T12:43:17;4.55;;;3.50;;
14599;SDS011;7386;45.586;12.854;2023-10-19T12:45:48;5.30;;;3.88;;
14599;SDS011;7386;45.586;12.854;2023-10-19T12:48:21;3.83;;;3.33;;
14599;SDS011;7386;45.586;12.854;2023-10-19T12:50:53;5.50;;;3.58;;
14599;SDS011;7386;45.586;12.854;2023-10-19T12:53:22;5.97;;;3.10;;
14599;SDS011;7386;45.586;12.854;2023-10-19T12:55:51;4.93;;;2.92;;
14599;SDS011;7386;45.586;12.854;2023-10-19T12:58:20;4.97;;;3.05;;
14599;SDS011;7386;45.586;12.854;2023-10-19T13:00:48;3.42;;;2.72;;
14599;SDS011;7386;45.586;12.854;2023-10-19T13:03:18;4.45;;;3.30;;
14599;SDS011;7386;45.586;12.854;2023-10-19T13:05:48;3.42;;;2.55;;
14599;SDS011;7386;45.586;12.854;2023-10-19T13:08:18;4.30;;;2.90;;
14599;SDS011;7386;45.586;12.854;2023-10-19T13:10:47;6.55;;;3.00;;
14599;SDS011;7386;45.586;12.854;2023-10-19T13:13:18;5.63;;;3.05;;
14599;SDS011;7386;45.586;12.854;2023-10-19T13:15:50;5.18;;;3.20;;
14599;SDS011;7386;45.586;12.854;2023-10-19T13:18:20;7.18;;;3.28;;
14599;SDS011;7386;45.586;12.854;2023-10-19T13:20:51;6.72;;;3.35;;
14599;SDS011;7386;45.586;12.854;2023-10-19T13:23:22;5.68;;;3.10;;
14599;SDS011;7386;45.586;12.854;2023-10-19T13:25:50;5.95;;;3.15;;
14599;SDS011;7386;45.586;12.854;2023-10-19T13:28:21;5.85;;;3.17;;
14599;SDS011;7386;45.586;12.854;2023-10-19T13:30:50;5.35;;;2.90;;
14599;SDS011;7386;45.586;12.854;2023-10-19T13:33:20;5.97;;;3.28;;
14599;SDS011;7386;45.586;12.854;2023-10-19T13:35:48;4.22;;;3.03;;
14599;SDS011;7386;45.586;12.854;2023-10-19T13:38:17;6.60;;;2.88;;
14599;SDS011;7386;45.586;12.854;2023-10-19T13:40:48;4.43;;;2.90;;
14599;SDS011;7386;45.586;12.854;2023-10-19T13:43:17;3.50;;;2.60;;
14599;SDS011;7386;45.586;12.854;2023-10-19T13:45:47;5.22;;;2.90;;
14599;SDS011;7386;45.586;12.854;2023-10-19T13:48:16;4.50;;;2.83;;
14599;SDS011;7386;45.586;12.854;2023-10-19T13:50:44;5.25;;;2.80;;
14599;SDS011;7386;45.586;12.854;2023-10-19T13:53:14;5.55;;;2.78;;
14599;SDS011;7386;45.586;12.854;2023-10-19T13:55:43;3.40;;;2.80;;
14599;SDS011;7386;45.586;12.854;2023-10-19T13:58:13;6.57;;;2.67;;
14599;SDS011;7386;45.586;12.854;2023-10-19T14:00:44;3.55;;;2.80;;
14599;SDS011;7386;45.586;12.854;2023-10-19T14:03:14;4.00;;;2.80;;
14599;SDS011;7386;45.586;12.854;2023-10-19T14:05:43;6.10;;;2.97;;
14599;SDS011;7386;45.586;12.854;2023-10-19T14:08:14;7.22;;;3.15;;
14599;SDS011;7386;45.586;12.854;2023-10-19T14:10:44;4.72;;;3.08;;
14599;SDS011;7386;45.586;12.854;2023-10-19T14:13:14;6.40;;;3.00;;
14599;SDS011;7386;45.586;12.854;2023-10-19T14:15:43;8.73;;;3.20;;
14599;SDS011;7386;45.586;12.854;2023-10-19T14:18:11;5.40;;;2.90;;
14599;SDS011;7386;45.586;12.854;2023-10-19T14:20:40;5.15;;;2.90;;
14599;SDS011;7386;45.586;12.854;2023-10-19T14:23:08;6.38;;;2.88;;
14599;SDS011;7386;45.586;12.854;2023-10-19T14:25:37;5.53;;;3.10;;
14599;SDS011;7386;45.586;12.854;2023-10-19T14:28:08;5.40;;;3.05;;
14599;SDS011;7386;45.586;12.854;2023-10-19T14:30:39;3.78;;;2.88;;
14599;SDS011;7386;45.586;12.854;2023-10-19T14:33:08;4.65;;;2.97;;
14599;SDS011;7386;45.586;12.854;2023-10-19T14:35:38;4.68;;;3.00;;
14599;SDS011;7386;45.586;12.854;2023-10-19T14:38:09;5.93;;;3.03;;
14599;SDS011;7386;45.586;12.854;2023-10-19T14:40:40;5.03;;;2.90;;
14599;SDS011;7386;45.586;12.854;2023-10-19T14:43:11;7.35;;;3.25;;
14599;SDS011;7386;45.586;12.854;2023-10-19T14:45:41;4.00;;;2.90;;
14599;SDS011;7386;45.586;12.854;2023-10-19T14:48:10;5.72;;;2.80;;
14599;SDS011;7386;45.586;12.854;2023-10-19T14:50:39;4.60;;;3.00;;
14599;SDS011;7386;45.586;12.854;2023-10-19T14:53:08;6.78;;;3.10;;
14599;SDS011;7386;45.586;12.854;2023-10-19T14:55:37;7.70;;;3.00;;
14599;SDS011;7386;45.586;12.854;2023-10-19T14:58:06;4.60;;;2.92;;
14599;SDS011;7386;45.586;12.854;2023-10-19T15:00:34;5.35;;;2.80;;